Terminal Aerodrome Forecast
Issued by NWS

Current Version | Previous Version | Graphics & Text | Print | Product List | Glossary On
Versions: 1 2 3 4 5 6 7 8 9 10 11 12 13
000
FTUS41 KPBZ 251400 AAA
TAFMGW
TAF AMD
KMGW 251453Z 2515/2612 25010KT P6SM SCT025 OVC035
     FM252200 24007KT P6SM BKN050
     FM260200 VRB04KT P6SM SCT250=

USA.gov is the U.S. government's official web portal to all federal, state and local government web resources and services.